createdAt,value
2019-01-17T00:00:40.425Z,26.73
2019-01-17T00:03:25.865Z,24.53
2019-01-17T00:06:25.746Z,24.57
2019-01-17T00:09:21.515Z,23.93
2019-01-17T00:11:58.323Z,28.00
2019-01-17T00:14:45.112Z,30.53
2019-01-17T00:17:30.370Z,25.37
2019-01-17T00:20:15.943Z,24.73
2019-01-17T00:23:01.601Z,33.90
2019-01-17T00:25:46.015Z,23.83
2019-01-17T00:28:44.937Z,25.27
2019-01-17T00:31:33.810Z,29.20
2019-01-17T00:34:21.921Z,25.00
2019-01-17T00:37:01.282Z,28.47
2019-01-17T00:39:41.425Z,26.90
2019-01-17T00:42:26.970Z,23.60
2019-01-17T00:45:25.813Z,27.33
2019-01-17T00:48:24.524Z,27.37
2019-01-17T00:51:17.215Z,26.87
2019-01-17T00:54:08.947Z,25.07
2019-01-17T00:57:06.492Z,25.43
2019-01-17T00:59:50.684Z,24.27
2019-01-17T01:02:52.354Z,25.43
2019-01-17T01:06:11.402Z,23.97
2019-01-17T01:09:13.162Z,23.33
2019-01-17T01:12:11.718Z,25.20
2019-01-17T01:14:44.968Z,26.60
2019-01-17T01:17:27.956Z,24.13
2019-01-17T01:20:13.547Z,22.60
2019-01-17T01:22:59.729Z,25.10
2019-01-17T01:26:04.552Z,32.17
2019-01-17T01:28:57.002Z,25.53
2019-01-17T01:31:35.886Z,30.97
2019-01-17T01:34:21.339Z,32.47
2019-01-17T01:37:09.916Z,30.17
2019-01-17T01:39:59.599Z,28.00
2019-01-17T01:42:45.005Z,24.37
2019-01-17T01:45:29.606Z,25.33
2019-01-17T01:48:28.433Z,29.23
2019-01-17T01:51:20.898Z,24.70
2019-01-17T01:53:48.091Z,27.93
2019-01-17T01:56:15.135Z,24.43
2019-01-17T01:58:42.181Z,22.20
2019-01-17T02:01:09.256Z,21.37
2019-01-17T02:03:36.399Z,19.40
2019-01-17T02:06:03.864Z,24.13
2019-01-17T02:08:30.951Z,18.33
2019-01-17T02:10:58.021Z,22.17
2019-01-17T02:13:25.153Z,18.27
2019-01-17T02:15:52.247Z,20.83
2019-01-17T02:18:19.281Z,23.13
2019-01-17T02:20:46.336Z,18.40
2019-01-17T02:23:13.405Z,24.17
2019-01-17T02:25:40.487Z,19.13
2019-01-17T02:28:07.630Z,20.13
2019-01-17T02:30:56.869Z,17.93
2019-01-17T02:33:23.909Z,21.27
2019-01-17T02:35:51.212Z,18.87
2019-01-17T02:38:18.287Z,19.53
2019-01-17T02:40:45.435Z,17.37
2019-01-17T02:43:12.522Z,15.83
2019-01-17T02:45:39.604Z,15.53
2019-01-17T02:48:06.646Z,15.60
2019-01-17T02:50:33.685Z,17.43
2019-01-17T02:53:00.855Z,16.67
2019-01-17T02:55:27.885Z,18.17
2019-01-17T02:57:55.045Z,18.27
2019-01-17T03:00:22.125Z,19.47
2019-01-17T03:02:49.379Z,23.90
2019-01-17T03:05:16.433Z,22.73
2019-01-17T03:07:43.524Z,24.37
2019-01-17T03:10:17.066Z,35.60
2019-01-17T03:12:44.100Z,30.20
2019-01-17T03:15:11.277Z,35.20
2019-01-17T03:17:38.443Z,33.27
2019-01-17T03:20:06.367Z,34.63
2019-01-17T03:22:33.423Z,29.87
2019-01-17T03:25:00.474Z,32.63
2019-01-17T03:27:27.523Z,37.70
2019-01-17T03:29:54.623Z,36.17
2019-01-17T03:32:21.672Z,39.80
2019-01-17T03:34:48.758Z,36.07
2019-01-17T03:37:15.829Z,35.77
2019-01-17T03:39:42.964Z,36.87
2019-01-17T03:42:10.013Z,36.33
2019-01-17T03:44:37.096Z,32.77
2019-01-17T03:47:04.147Z,34.23
2019-01-17T03:49:31.176Z,30.83
2019-01-17T03:51:58.228Z,37.33
2019-01-17T03:54:25.270Z,32.03
2019-01-17T03:56:52.760Z,36.93
2019-01-17T03:59:19.804Z,31.60
2019-01-17T04:01:46.841Z,34.03
2019-01-17T04:04:13.977Z,32.03
2019-01-17T04:06:41.016Z,35.87
2019-01-17T04:09:08.078Z,30.10
2019-01-17T04:11:36.276Z,33.03
2019-01-17T04:14:05.084Z,30.87
2019-01-17T04:16:32.140Z,30.10
2019-01-17T04:18:59.216Z,34.83
2019-01-17T04:21:26.287Z,29.77
2019-01-17T04:23:53.338Z,33.57
2019-01-17T04:26:20.397Z,34.20
2019-01-17T04:28:47.511Z,28.40
2019-01-17T04:31:14.568Z,29.17
2019-01-17T04:33:41.674Z,31.47
2019-01-17T04:36:08.704Z,32.93
2019-01-17T04:38:35.727Z,34.00
2019-01-17T04:41:02.786Z,31.23
2019-01-17T04:43:29.825Z,33.80
2019-01-17T04:45:57.213Z,32.53
2019-01-17T04:48:24.277Z,32.20
2019-01-17T04:50:51.479Z,35.27
2019-01-17T04:53:18.534Z,34.23
2019-01-17T04:55:45.627Z,31.17
2019-01-17T04:58:12.741Z,31.23
2019-01-17T05:00:39.789Z,36.50
2019-01-17T05:03:06.883Z,30.93
2019-01-17T05:05:33.909Z,34.13
2019-01-17T05:08:00.956Z,34.03
2019-01-17T05:10:28.021Z,37.97
2019-01-17T05:12:55.048Z,33.63
2019-01-17T05:15:22.219Z,36.27
2019-01-17T05:17:49.297Z,36.97
2019-01-17T05:20:16.350Z,38.27
2019-01-17T05:22:43.395Z,40.87
2019-01-17T05:25:12.651Z,34.63
2019-01-17T05:27:40.097Z,41.20
2019-01-17T05:30:17.806Z,40.43
2019-01-17T05:32:44.826Z,38.13
2019-01-17T05:35:12.168Z,39.27
2019-01-17T05:37:39.479Z,38.27
2019-01-17T05:43:33.395Z,40.40
2019-01-17T05:46:00.446Z,42.90
2019-01-17T05:48:27.488Z,42.30
2019-01-17T05:50:54.570Z,42.93
2019-01-17T05:53:21.632Z,42.73
2019-01-17T05:55:48.675Z,39.87
2019-01-17T05:58:15.745Z,39.47
2019-01-17T06:00:42.896Z,38.03
2019-01-17T06:03:47.890Z,41.67
2019-01-17T06:06:15.043Z,35.67
2019-01-17T06:08:42.136Z,36.07
2019-01-17T06:11:09.218Z,37.37
2019-01-17T06:13:36.262Z,32.83
2019-01-17T06:16:03.684Z,33.63
2019-01-17T06:18:31.291Z,33.60
2019-01-17T06:20:58.305Z,33.10
2019-01-17T06:23:25.353Z,30.23
2019-01-17T06:25:52.432Z,32.90
2019-01-17T06:28:19.498Z,33.50
2019-01-17T06:30:46.540Z,30.83
2019-01-17T06:33:13.683Z,27.80
2019-01-17T06:35:40.734Z,32.90
2019-01-17T06:38:07.796Z,30.23
2019-01-17T06:40:34.864Z,29.80
2019-01-17T06:43:01.962Z,26.83
2019-01-17T06:45:29.029Z,31.37
2019-01-17T06:47:56.107Z,24.97
2019-01-17T06:50:23.261Z,26.37
2019-01-17T06:52:50.322Z,28.40
2019-01-17T06:55:17.562Z,25.73
2019-01-17T06:57:44.711Z,29.23
2019-01-17T07:00:13.434Z,31.17
2019-01-17T07:02:40.518Z,29.63
2019-01-17T07:05:07.925Z,31.67
2019-01-17T07:07:35.076Z,28.93
2019-01-17T07:10:03.098Z,31.77
2019-01-17T07:12:30.178Z,31.17
2019-01-17T07:14:57.225Z,31.10
2019-01-17T07:17:24.344Z,31.50
2019-01-17T07:19:51.368Z,27.27
2019-01-17T07:22:18.526Z,27.70
2019-01-17T07:24:45.638Z,29.57
2019-01-17T07:27:12.699Z,27.90
2019-01-17T07:29:39.790Z,30.33
2019-01-17T07:32:06.847Z,31.90
2019-01-17T07:34:33.879Z,24.13
2019-01-17T07:37:00.904Z,25.53
2019-01-17T07:39:28.020Z,29.43
2019-01-17T07:41:55.054Z,28.43
2019-01-17T07:44:22.240Z,29.63
2019-01-17T07:46:49.318Z,29.03
2019-01-17T07:49:16.346Z,26.90
2019-01-17T07:51:43.387Z,28.57
2019-01-17T07:54:10.471Z,31.27
2019-01-17T07:56:37.514Z,29.23
2019-01-17T07:59:04.566Z,30.03
2019-01-17T08:01:31.645Z,30.77
2019-01-17T08:03:58.835Z,32.83
2019-01-17T08:06:25.876Z,30.10
2019-01-17T08:08:53.126Z,31.43
2019-01-17T08:11:20.260Z,29.93
2019-01-17T08:13:47.307Z,32.90
2019-01-17T08:16:14.377Z,34.50
2019-01-17T08:18:41.449Z,31.80
2019-01-17T08:21:08.504Z,33.70
2019-01-17T08:23:35.600Z,34.43
2019-01-17T08:26:02.739Z,32.17
2019-01-17T08:28:29.869Z,36.67
2019-01-17T08:30:56.938Z,31.60
2019-01-17T08:33:23.979Z,36.13
2019-01-17T08:35:51.097Z,34.57
2019-01-17T08:38:18.120Z,30.87
2019-01-17T08:40:45.172Z,33.90
2019-01-17T08:43:12.234Z,33.80
2019-01-17T08:45:39.329Z,32.07
2019-01-17T08:48:06.362Z,31.23
2019-01-17T08:50:33.591Z,31.00
2019-01-17T08:53:01.418Z,31.70
2019-01-17T08:55:28.490Z,28.23
2019-01-17T08:57:55.680Z,27.43
2019-01-17T09:00:23.709Z,33.13
2019-01-17T09:03:10.461Z,28.90
2019-01-17T09:05:37.519Z,30.13
2019-01-17T09:08:04.648Z,25.57
2019-01-17T09:10:31.857Z,25.03
2019-01-17T09:12:58.903Z,19.20
2019-01-17T09:15:28.550Z,16.70
2019-01-17T09:17:55.648Z,12.93
2019-01-17T09:20:22.691Z,16.97
2019-01-17T09:22:49.719Z,16.70
2019-01-17T09:25:16.847Z,15.43
2019-01-17T09:27:44.044Z,18.90
2019-01-17T09:30:13.898Z,16.57
2019-01-17T09:32:41.101Z,15.20
2019-01-17T09:35:09.559Z,11.20
2019-01-17T09:37:37.338Z,15.13
2019-01-17T09:40:06.182Z,12.53
2019-01-17T09:42:33.232Z,7.87
2019-01-17T09:45:00.454Z,7.13
2019-01-17T09:47:27.590Z,9.30
2019-01-17T09:49:54.690Z,8.03
2019-01-17T09:52:21.758Z,9.83
2019-01-17T09:54:48.804Z,16.63
2019-01-17T09:57:15.911Z,7.70
2019-01-17T09:59:42.952Z,12.83
2019-01-17T10:02:10.064Z,9.53
2019-01-17T10:04:37.199Z,10.80
2019-01-17T10:07:04.260Z,9.57
2019-01-17T10:09:31.412Z,11.87
2019-01-17T10:11:58.524Z,8.07
2019-01-17T10:14:25.551Z,7.60
2019-01-17T10:17:46.615Z,12.80
2019-01-17T10:20:51.342Z,6.80
2019-01-17T10:24:08.326Z,8.63
2019-01-17T10:27:05.002Z,9.43
2019-01-17T10:30:12.598Z,10.83
2019-01-17T10:33:06.624Z,10.70
2019-01-17T10:36:21.378Z,10.47
2019-01-17T10:39:25.107Z,12.30
2019-01-17T10:42:49.316Z,11.00
2019-01-17T10:45:45.331Z,12.43
2019-01-17T10:48:54.629Z,9.87
2019-01-17T10:52:18.969Z,8.63
2019-01-17T10:55:18.222Z,12.43
2019-01-17T10:58:22.699Z,8.93
2019-01-17T11:01:33.470Z,5.17
2019-01-17T11:05:08.639Z,4.57
2019-01-17T11:08:12.736Z,4.97
2019-01-17T11:11:11.844Z,3.47
2019-01-17T11:14:11.204Z,4.93
2019-01-17T11:17:19.807Z,7.27
2019-01-17T11:20:06.438Z,4.57
2019-01-17T11:23:07.063Z,5.33
2019-01-17T11:26:10.576Z,4.00
2019-01-17T11:29:13.292Z,5.30
2019-01-17T11:32:07.295Z,7.90
2019-01-17T11:34:59.759Z,5.57
2019-01-17T11:38:05.784Z,6.43
2019-01-17T11:40:49.318Z,6.60
2019-01-17T11:43:45.254Z,5.13
2019-01-17T11:47:21.564Z,5.57
2019-01-17T11:50:09.676Z,6.43
2019-01-17T11:53:07.248Z,4.03
2019-01-17T11:56:11.066Z,3.67
2019-01-17T11:59:31.363Z,6.63
2019-01-17T12:02:41.122Z,4.57
2019-01-17T12:05:11.088Z,3.53
2019-01-17T12:07:38.178Z,9.30
2019-01-17T12:10:06.210Z,5.30
2019-01-17T12:12:33.563Z,3.43
2019-01-17T12:15:00.861Z,5.00
2019-01-17T12:17:27.916Z,4.50
2019-01-17T12:19:55.221Z,5.63
2019-01-17T12:22:22.299Z,8.47
2019-01-17T12:24:49.352Z,5.10
2019-01-17T12:27:16.399Z,5.43
2019-01-17T12:29:43.468Z,5.87
2019-01-17T12:32:10.532Z,4.30
2019-01-17T12:34:37.582Z,4.07
2019-01-17T12:37:04.719Z,6.50
2019-01-17T12:39:31.743Z,4.30
2019-01-17T12:41:58.886Z,4.67
2019-01-17T12:44:25.903Z,4.13
2019-01-17T12:46:52.983Z,4.37
2019-01-17T12:49:20.036Z,3.47
2019-01-17T12:51:47.093Z,2.57
2019-01-17T12:54:14.162Z,4.53
2019-01-17T12:56:41.302Z,5.20
2019-01-17T12:59:08.356Z,3.47
2019-01-17T13:01:35.417Z,6.17
2019-01-17T13:04:02.479Z,6.00
2019-01-17T13:06:29.616Z,5.33
2019-01-17T13:08:56.682Z,5.83
2019-01-17T13:11:23.749Z,5.17
2019-01-17T13:13:50.773Z,4.13
2019-01-17T13:16:17.834Z,5.20
2019-01-17T13:18:44.921Z,4.57
2019-01-17T13:21:15.005Z,8.17
2019-01-17T13:23:42.051Z,3.60
2019-01-17T13:26:09.141Z,2.33
2019-01-17T13:28:36.339Z,3.70
2019-01-17T13:31:03.645Z,4.50
2019-01-17T13:33:30.708Z,5.97
2019-01-17T13:35:58.494Z,4.50
2019-01-17T13:38:25.556Z,3.87
2019-01-17T13:40:52.663Z,2.57
2019-01-17T13:43:19.676Z,2.20
2019-01-17T13:45:46.718Z,3.47
2019-01-17T13:48:13.946Z,7.07
2019-01-17T13:50:40.995Z,4.00
2019-01-17T13:53:08.061Z,3.83
2019-01-17T13:55:35.190Z,11.33
2019-01-17T13:58:02.233Z,3.97
2019-01-17T14:00:29.481Z,4.43
2019-01-17T14:02:56.565Z,3.10
2019-01-17T14:05:23.678Z,11.17
2019-01-17T14:07:50.940Z,3.97
2019-01-17T14:10:18.290Z,7.63
2019-01-17T14:12:45.455Z,6.03
2019-01-17T14:15:27.421Z,12.20
2019-01-17T14:17:54.454Z,9.37
2019-01-17T14:20:21.508Z,9.77
2019-01-17T14:22:48.609Z,7.77
2019-01-17T14:25:15.777Z,13.40
2019-01-17T14:27:43.049Z,7.33
2019-01-17T14:30:14.238Z,15.73
2019-01-17T14:32:41.400Z,13.30
2019-01-17T14:35:08.434Z,7.33
2019-01-17T14:37:35.689Z,6.50
2019-01-17T14:40:03.614Z,17.47
2019-01-17T14:42:30.723Z,14.03
2019-01-17T14:44:59.671Z,7.67
2019-01-17T14:47:26.782Z,12.63
2019-01-17T14:50:14.370Z,11.50
2019-01-17T14:52:41.414Z,8.40
2019-01-17T14:55:08.599Z,9.87
2019-01-17T14:57:35.690Z,16.63
2019-01-17T15:00:04.271Z,16.33
2019-01-17T15:02:31.361Z,9.47
2019-01-17T15:04:58.594Z,7.23
2019-01-17T15:07:25.749Z,12.37
2019-01-17T15:09:52.805Z,10.67
2019-01-17T15:12:19.954Z,8.67
2019-01-17T15:14:47.125Z,14.00
2019-01-17T15:17:14.172Z,12.07
2019-01-17T15:19:41.271Z,14.87
2019-01-17T15:22:08.357Z,5.13
2019-01-17T15:24:35.524Z,11.20
2019-01-17T15:27:02.840Z,16.07
2019-01-17T15:29:30.044Z,15.17
2019-01-17T15:31:57.127Z,17.93
2019-01-17T15:34:24.213Z,12.03
2019-01-17T15:37:01.579Z,12.07
2019-01-17T15:39:28.667Z,15.80
2019-01-17T15:41:56.941Z,11.20
2019-01-17T15:44:24.040Z,13.13
2019-01-17T15:46:51.200Z,10.43
2019-01-17T15:49:18.296Z,10.00
2019-01-17T15:51:45.351Z,14.20
2019-01-17T15:54:12.425Z,13.03
2019-01-17T15:56:39.622Z,14.57
2019-01-17T15:59:06.785Z,19.07
2019-01-17T16:01:33.897Z,7.93
2019-01-17T16:04:01.018Z,11.20
2019-01-17T16:06:28.102Z,9.97
2019-01-17T16:08:55.150Z,14.13
2019-01-17T16:11:22.231Z,7.10
2019-01-17T16:13:49.767Z,5.87
2019-01-17T16:16:17.928Z,10.30
2019-01-17T16:18:45.405Z,9.13
2019-01-17T16:21:12.663Z,8.20
2019-01-17T16:23:39.767Z,5.27
2019-01-17T16:26:06.955Z,9.20
2019-01-17T16:28:34.359Z,8.07
2019-01-17T16:31:01.678Z,5.47
2019-01-17T16:33:28.803Z,4.43
2019-01-17T16:35:56.913Z,4.43
2019-01-17T16:38:24.387Z,2.63
2019-01-17T16:40:51.928Z,4.37
2019-01-17T16:43:19.002Z,7.83
2019-01-17T16:45:46.069Z,2.87
2019-01-17T16:48:13.173Z,8.63
2019-01-17T16:50:40.551Z,6.03
2019-01-17T16:53:07.631Z,5.00
2019-01-17T16:55:34.688Z,12.03
2019-01-17T16:58:01.954Z,8.30
2019-01-17T17:00:41.479Z,9.67
2019-01-17T17:03:09.272Z,3.40
2019-01-17T17:05:36.434Z,6.37
2019-01-17T17:08:03.925Z,8.00
2019-01-17T17:10:31.104Z,4.23
2019-01-17T17:12:58.154Z,5.17
2019-01-17T17:15:25.201Z,6.10
2019-01-17T17:17:52.249Z,3.97
2019-01-17T17:20:19.951Z,6.23
2019-01-17T17:22:46.983Z,4.50
2019-01-17T17:25:14.107Z,6.70
2019-01-17T17:27:41.140Z,5.37
2019-01-17T17:30:13.932Z,8.83
2019-01-17T17:32:41.051Z,5.27
2019-01-17T17:35:08.552Z,6.87
2019-01-17T17:37:35.707Z,5.40
2019-01-17T17:40:04.093Z,7.77
2019-01-17T17:42:31.118Z,7.67
2019-01-17T17:44:58.146Z,10.37
2019-01-17T17:47:25.365Z,8.43
2019-01-17T17:49:52.802Z,7.80
2019-01-17T17:52:19.931Z,7.23
2019-01-17T17:54:47.074Z,10.60
2019-01-17T17:57:14.115Z,13.67
2019-01-17T17:59:41.201Z,11.80
2019-01-17T18:05:50.619Z,14.20
2019-01-17T18:08:17.666Z,13.50
2019-01-17T18:10:45.834Z,11.70
2019-01-17T18:13:12.924Z,14.27
2019-01-17T18:15:39.941Z,16.40
2019-01-17T18:18:07.013Z,18.77
2019-01-17T18:20:34.563Z,16.30
2019-01-17T18:23:01.803Z,17.10
2019-01-17T18:25:29.371Z,14.63
2019-01-17T18:27:56.551Z,19.30
2019-01-17T18:30:23.642Z,20.30
2019-01-17T18:32:50.878Z,20.37
2019-01-17T18:35:18.273Z,23.30
2019-01-17T18:37:45.418Z,20.37
2019-01-17T18:40:13.897Z,22.10
2019-01-17T18:42:41.216Z,25.83
2019-01-17T18:45:10.659Z,22.00
2019-01-17T18:47:37.739Z,24.80
2019-01-17T18:50:07.058Z,27.13
2019-01-17T18:56:33.237Z,24.70
2019-01-17T18:59:00.278Z,22.47
2019-01-17T19:01:27.328Z,22.47
2019-01-17T19:03:54.530Z,21.87
2019-01-17T19:06:21.606Z,24.30
2019-01-17T19:08:48.668Z,21.77
2019-01-17T19:11:15.735Z,24.17
2019-01-17T19:13:42.835Z,25.00
2019-01-17T19:16:09.915Z,25.80
2019-01-17T19:18:37.063Z,30.00
2019-01-17T19:21:04.207Z,29.93
2019-01-17T19:23:31.267Z,31.83
2019-01-17T19:25:58.519Z,34.50
2019-01-17T19:28:25.564Z,35.13
2019-01-17T19:30:53.878Z,38.03
2019-01-17T19:33:21.058Z,37.50
2019-01-17T19:35:48.121Z,30.07
2019-01-17T19:38:15.174Z,33.33
2019-01-17T19:40:42.321Z,30.03
2019-01-17T19:43:09.383Z,30.73
2019-01-17T19:45:36.442Z,30.37
2019-01-17T19:48:03.637Z,29.80
2019-01-17T19:50:35.611Z,32.23
2019-01-17T19:53:03.593Z,32.97
2019-01-17T19:55:30.676Z,32.60
2019-01-17T19:58:05.417Z,26.97
2019-01-17T20:00:32.459Z,31.57
2019-01-17T20:02:59.556Z,25.97
2019-01-17T20:05:28.238Z,26.37
2019-01-17T20:07:55.338Z,21.03
2019-01-17T20:10:24.739Z,24.50
2019-01-17T20:12:51.893Z,23.57
2019-01-17T20:15:19.337Z,25.20
2019-01-17T20:17:46.525Z,28.93
2019-01-17T20:20:14.375Z,21.40
2019-01-17T20:22:41.440Z,27.23
2019-01-17T20:25:09.156Z,20.17
2019-01-17T20:27:36.332Z,16.33
2019-01-17T20:30:07.493Z,14.57
2019-01-17T20:32:34.821Z,17.97
2019-01-17T20:35:02.038Z,12.30
2019-01-17T20:37:29.171Z,16.50
2019-01-17T20:39:56.343Z,8.40
2019-01-17T20:42:23.539Z,9.30
2019-01-17T20:44:50.853Z,6.87
2019-01-17T20:47:18.055Z,11.97
2019-01-17T20:49:45.123Z,5.70
2019-01-17T20:52:13.529Z,10.73
2019-01-17T20:55:00.317Z,7.40
2019-01-17T20:57:27.445Z,4.93
2019-01-17T20:59:54.599Z,8.07
2019-01-17T21:02:21.771Z,6.83
2019-01-17T21:04:50.400Z,5.33
2019-01-17T21:07:17.485Z,7.70
2019-01-17T21:09:44.566Z,7.83
2019-01-17T21:12:11.737Z,11.20
2019-01-17T21:14:39.123Z,8.60
2019-01-17T21:17:06.293Z,10.77
2019-01-17T21:19:33.384Z,17.13
2019-01-17T21:22:00.451Z,10.70
2019-01-17T21:25:23.089Z,15.33
2019-01-17T21:27:50.172Z,16.50
2019-01-17T21:30:19.619Z,16.37
2019-01-17T21:32:46.702Z,20.00
2019-01-17T21:35:13.805Z,18.80
2019-01-17T21:37:40.854Z,23.63
2019-01-17T21:40:10.523Z,30.17
2019-01-17T21:42:37.799Z,25.80
2019-01-17T21:45:07.486Z,28.57
2019-01-17T21:47:34.529Z,29.10
2019-01-17T21:50:03.519Z,29.07
2019-01-17T21:52:30.599Z,29.33
2019-01-17T21:54:57.650Z,31.27
2019-01-17T21:57:24.714Z,28.90
2019-01-17T21:59:51.883Z,32.13
2019-01-17T22:02:18.919Z,29.17
2019-01-17T22:04:46.044Z,29.80
2019-01-17T22:07:13.180Z,33.10
2019-01-17T22:09:40.382Z,31.53
2019-01-17T22:12:07.469Z,35.47
2019-01-17T22:14:34.579Z,32.40
2019-01-17T22:17:01.636Z,25.10
2019-01-17T22:19:28.692Z,30.17
2019-01-17T22:25:48.510Z,26.70
2019-01-17T22:28:15.544Z,27.00
2019-01-17T22:30:42.878Z,31.73
2019-01-17T22:33:09.958Z,28.43
2019-01-17T22:35:37.070Z,23.70
2019-01-17T22:38:04.165Z,23.70
2019-01-17T22:40:31.352Z,22.23
2019-01-17T22:42:58.410Z,22.50
2019-01-17T22:45:28.072Z,24.50
2019-01-17T22:47:55.148Z,22.30
2019-01-17T22:50:22.203Z,23.83
2019-01-17T22:52:49.478Z,26.30
2019-01-17T22:55:16.598Z,23.40
2019-01-17T22:57:43.857Z,30.23
2019-01-17T23:00:22.094Z,24.47
2019-01-17T23:02:49.412Z,34.67
2019-01-17T23:05:16.582Z,24.77
2019-01-17T23:07:50.201Z,26.43
2019-01-17T23:10:17.475Z,31.70
2019-01-17T23:12:44.522Z,28.03
2019-01-17T23:15:11.635Z,27.23
2019-01-17T23:17:38.659Z,24.07
2019-01-17T23:20:06.566Z,36.63
2019-01-17T23:22:33.647Z,28.60
2019-01-17T23:25:00.685Z,20.37
2019-01-17T23:27:27.725Z,29.53
2019-01-17T23:29:55.028Z,24.20
2019-01-17T23:32:22.080Z,24.40
2019-01-17T23:34:49.201Z,25.47
2019-01-17T23:40:47.780Z,25.97
2019-01-17T23:43:14.943Z,29.10
2019-01-17T23:45:42.027Z,22.10
2019-01-17T23:48:09.074Z,28.80
2019-01-17T23:50:36.219Z,28.17
2019-01-17T23:53:04.174Z,25.20
2019-01-17T23:55:31.243Z,24.87
2019-01-17T23:57:58.271Z,22.87
